createdAt,value
2022-11-15T00:01:34.635Z,6.10
2022-11-15T00:04:20.023Z,6.00
2022-11-15T00:07:05.828Z,6.00
2022-11-15T00:09:51.563Z,6.00
2022-11-15T00:12:37.317Z,6.00
2022-11-15T00:15:23.081Z,5.80
2022-11-15T00:18:14.192Z,5.80
2022-11-15T00:21:07.053Z,5.80
2022-11-15T00:23:52.686Z,5.70
2022-11-15T00:26:38.359Z,5.70
2022-11-15T00:29:24.157Z,5.60
2022-11-15T00:32:13.085Z,5.60
2022-11-15T00:34:58.788Z,5.70
2022-11-15T00:37:44.147Z,5.70
2022-11-15T00:40:30.195Z,5.70
2022-11-15T00:43:15.797Z,5.60
2022-11-15T00:46:02.018Z,5.60
2022-11-15T00:48:47.692Z,5.60
2022-11-15T00:51:33.402Z,5.60
2022-11-15T00:54:18.938Z,5.60
2022-11-15T00:57:05.086Z,5.70
2022-11-15T00:59:50.908Z,5.70
2022-11-15T01:02:36.916Z,5.70
2022-11-15T01:05:22.700Z,5.70
2022-11-15T01:08:14.204Z,5.80
2022-11-15T01:11:07.170Z,5.80
2022-11-15T01:13:53.034Z,5.90
2022-11-15T01:16:38.759Z,5.90
2022-11-15T01:19:24.536Z,5.90
2022-11-15T01:22:10.145Z,5.90
2022-11-15T01:24:56.186Z,5.80
2022-11-15T01:27:41.995Z,5.70
2022-11-15T01:30:28.206Z,5.70
2022-11-15T01:33:13.877Z,5.70
2022-11-15T01:35:59.518Z,5.80
2022-11-15T01:38:45.613Z,5.90
2022-11-15T01:41:34.115Z,5.90
2022-11-15T01:44:51.061Z,5.90
2022-11-15T01:47:41.851Z,6.00
2022-11-15T01:50:31.641Z,5.90
2022-11-15T01:53:18.431Z,5.90
2022-11-15T01:56:07.094Z,5.90
2022-11-15T01:58:56.598Z,5.90
2022-11-15T02:01:43.892Z,5.90
2022-11-15T02:04:33.864Z,5.90
2022-11-15T02:07:22.197Z,5.90
2022-11-15T02:10:11.617Z,5.80
2022-11-15T02:12:58.170Z,5.80
2022-11-15T02:16:16.018Z,5.90
2022-11-15T02:19:25.851Z,6.00
2022-11-15T02:22:41.069Z,6.00
2022-11-15T02:25:40.554Z,6.00
2022-11-15T02:28:32.436Z,5.90
2022-11-15T02:31:52.186Z,5.90
2022-11-15T02:34:50.101Z,5.90
2022-11-15T02:37:53.751Z,5.90
2022-11-15T02:41:00.548Z,5.90
2022-11-15T02:43:59.851Z,5.90
2022-11-15T02:47:13.812Z,5.90
2022-11-15T02:50:06.185Z,5.90
2022-11-15T02:52:52.738Z,5.90
2022-11-15T02:55:42.938Z,5.90
2022-11-15T02:58:50.074Z,6.00
2022-11-15T03:01:54.685Z,6.00
2022-11-15T03:04:53.859Z,6.00
2022-11-15T03:08:19.738Z,6.00
2022-11-15T03:11:18.330Z,6.00
2022-11-15T03:14:09.553Z,5.90
2022-11-15T03:17:02.287Z,5.80
2022-11-15T03:19:51.356Z,5.80
2022-11-15T03:22:44.397Z,5.90
2022-11-15T03:25:32.784Z,5.90
2022-11-15T03:28:27.751Z,5.80
2022-11-15T03:31:34.940Z,5.80
2022-11-15T03:34:26.762Z,5.80
2022-11-15T03:37:15.226Z,5.80
2022-11-15T03:40:02.452Z,5.80
2022-11-15T03:42:56.334Z,5.90
2022-11-15T03:45:51.493Z,5.80
2022-11-15T03:48:43.927Z,5.90
2022-11-15T03:51:30.937Z,5.80
2022-11-15T03:54:16.703Z,5.80
2022-11-15T03:57:02.760Z,5.90
2022-11-15T03:59:48.694Z,5.90
2022-11-15T04:02:34.763Z,5.90
2022-11-15T04:05:20.616Z,5.90
2022-11-15T04:08:06.616Z,5.80
2022-11-15T04:10:53.265Z,5.80
2022-11-15T04:13:39.362Z,5.80
2022-11-15T04:16:25.185Z,5.80
2022-11-15T04:19:29.643Z,5.80
2022-11-15T04:22:34.101Z,5.80
2022-11-15T04:25:23.506Z,5.90
2022-11-15T04:28:11.393Z,5.80
2022-11-15T04:30:57.301Z,5.90
2022-11-15T04:33:42.827Z,6.00
2022-11-15T04:36:46.998Z,6.00
2022-11-15T04:39:32.361Z,6.00
2022-11-15T04:42:18.024Z,6.00
2022-11-15T04:45:03.466Z,6.00
2022-11-15T04:47:49.187Z,6.00
2022-11-15T04:50:34.813Z,6.00
2022-11-15T04:53:20.529Z,6.00
2022-11-15T04:56:06.469Z,6.00
2022-11-15T04:58:52.262Z,6.00
2022-11-15T05:01:43.564Z,6.10
2022-11-15T05:04:30.791Z,6.00
2022-11-15T05:07:16.383Z,6.00
2022-11-15T05:10:02.598Z,6.00
2022-11-15T05:12:48.287Z,6.00
2022-11-15T05:15:35.033Z,5.90
2022-11-15T05:18:23.574Z,5.80
2022-11-15T05:21:13.397Z,5.80
2022-11-15T05:23:59.762Z,5.80
2022-11-15T05:26:47.216Z,5.90
2022-11-15T05:29:32.754Z,5.90
2022-11-15T05:32:19.297Z,5.90
2022-11-15T05:35:08.104Z,5.90
2022-11-15T05:37:53.887Z,5.80
2022-11-15T05:40:39.574Z,5.80
2022-11-15T05:43:25.786Z,5.80
2022-11-15T05:46:11.169Z,5.90
2022-11-15T05:48:58.389Z,5.90
2022-11-15T05:51:46.893Z,5.90
2022-11-15T05:54:33.962Z,5.90
2022-11-15T05:57:19.578Z,5.90
2022-11-15T06:00:06.386Z,5.90
2022-11-15T06:02:51.678Z,6.00
2022-11-15T06:05:37.357Z,6.00
2022-11-15T06:08:23.023Z,6.00
2022-11-15T06:11:08.773Z,6.00
2022-11-15T06:13:54.526Z,6.00
2022-11-15T06:16:40.044Z,6.00
2022-11-15T06:19:25.780Z,5.90
2022-11-15T06:22:11.544Z,5.90
2022-11-15T06:25:00.257Z,6.00
2022-11-15T06:27:54.327Z,5.90
2022-11-15T06:30:39.621Z,5.90
2022-11-15T06:33:28.591Z,6.00
2022-11-15T06:36:17.946Z,6.00
2022-11-15T06:39:05.492Z,6.00
2022-11-15T06:41:51.187Z,6.00
2022-11-15T06:44:36.841Z,6.00
2022-11-15T06:47:22.333Z,6.00
2022-11-15T06:50:08.540Z,6.10
2022-11-15T06:52:54.078Z,6.10
2022-11-15T06:55:39.695Z,6.10
2022-11-15T06:58:25.438Z,6.10
2022-11-15T07:01:13.166Z,6.20
2022-11-15T07:03:58.989Z,6.20
2022-11-15T07:06:48.492Z,6.10
2022-11-15T07:09:34.399Z,6.10
2022-11-15T07:12:20.158Z,6.20
2022-11-15T07:15:05.803Z,6.10
2022-11-15T07:17:51.773Z,6.10
2022-11-15T07:20:37.479Z,6.10
2022-11-15T07:23:23.394Z,6.20
2022-11-15T07:26:09.586Z,6.20
2022-11-15T07:28:55.816Z,6.20
2022-11-15T07:31:41.253Z,6.20
2022-11-15T07:34:27.081Z,6.30
2022-11-15T07:37:12.728Z,6.30
2022-11-15T07:39:58.429Z,6.30
2022-11-15T07:42:56.876Z,6.40
2022-11-15T07:45:46.717Z,6.40
2022-11-15T07:48:43.409Z,6.40
2022-11-15T07:51:29.679Z,6.50
2022-11-15T07:54:15.403Z,6.50
2022-11-15T07:57:05.722Z,6.50
2022-11-15T07:59:53.902Z,6.50
2022-11-15T08:02:39.901Z,6.50
2022-11-15T08:05:25.463Z,6.50
2022-11-15T08:08:21.804Z,6.50
2022-11-15T08:11:07.446Z,6.50
2022-11-15T08:13:53.461Z,6.60
2022-11-15T08:16:38.987Z,6.60
2022-11-15T08:19:24.733Z,6.60
2022-11-15T08:22:10.305Z,6.60
2022-11-15T08:24:56.147Z,6.70
2022-11-15T08:27:41.760Z,6.80
2022-11-15T08:30:28.043Z,6.80
2022-11-15T08:33:15.072Z,6.80
2022-11-15T08:36:01.813Z,6.90
2022-11-15T08:38:47.388Z,6.90
2022-11-15T08:41:36.860Z,7.00
2022-11-15T08:44:22.393Z,7.00
2022-11-15T08:47:08.703Z,7.10
2022-11-15T08:49:54.443Z,7.10
2022-11-15T08:52:40.021Z,7.10
2022-11-15T08:55:25.860Z,7.20
2022-11-15T08:58:11.698Z,7.20
2022-11-15T09:00:56.910Z,7.20
2022-11-15T09:03:42.700Z,7.20
2022-11-15T09:06:28.397Z,7.20
2022-11-15T09:09:14.025Z,7.30
2022-11-15T09:12:02.770Z,7.30
2022-11-15T09:14:48.803Z,7.40
2022-11-15T09:17:34.500Z,7.40
2022-11-15T09:20:20.231Z,7.40
2022-11-15T09:23:07.456Z,7.40
2022-11-15T09:25:58.890Z,7.40
2022-11-15T09:28:47.066Z,7.40
2022-11-15T09:31:33.126Z,7.40
2022-11-15T09:34:18.819Z,7.40
2022-11-15T09:37:04.686Z,7.40
2022-11-15T09:39:50.044Z,7.50
2022-11-15T09:43:07.428Z,7.50
2022-11-15T09:46:21.925Z,7.50
2022-11-15T09:49:10.274Z,7.50
2022-11-15T09:52:09.483Z,7.60
2022-11-15T09:54:58.191Z,7.60
2022-11-15T09:57:50.171Z,7.50
2022-11-15T10:03:28.279Z,7.60
2022-11-15T10:06:01.601Z,7.60
2022-11-15T10:08:51.320Z,7.70
2022-11-15T10:11:42.477Z,7.80
2022-11-15T10:14:25.281Z,7.80
2022-11-15T10:17:18.982Z,7.80
2022-11-15T10:19:51.737Z,7.80
2022-11-15T10:22:33.850Z,7.90
2022-11-15T10:25:09.777Z,7.90
2022-11-15T10:27:37.596Z,8.00
2022-11-15T10:30:12.287Z,7.90
2022-11-15T10:32:40.201Z,7.90
2022-11-15T10:35:30.859Z,8.00
2022-11-15T10:38:09.714Z,8.00
2022-11-15T10:40:38.046Z,8.10
2022-11-15T10:43:18.160Z,8.10
2022-11-15T10:45:46.269Z,8.10
2022-11-15T10:48:13.542Z,8.10
2022-11-15T10:50:42.823Z,8.10
2022-11-15T10:53:31.751Z,8.10
2022-11-15T10:56:07.483Z,8.10
2022-11-15T10:58:42.371Z,8.10
2022-11-15T11:01:10.541Z,8.20
2022-11-15T11:03:39.944Z,8.20
2022-11-15T11:06:11.440Z,8.30
2022-11-15T11:08:39.203Z,8.30
2022-11-15T11:11:08.169Z,8.30
2022-11-15T11:13:38.444Z,8.30
2022-11-15T11:16:14.595Z,8.30
2022-11-15T11:18:50.665Z,8.30
2022-11-15T11:21:42.563Z,8.30
2022-11-15T11:24:26.738Z,8.20
2022-11-15T11:27:21.146Z,8.20
2022-11-15T11:30:22.840Z,8.20
2022-11-15T11:33:01.844Z,8.20
2022-11-15T11:35:47.983Z,8.10
2022-11-15T11:38:51.500Z,8.10
2022-11-15T11:41:25.424Z,8.20
2022-11-15T11:44:22.033Z,8.10
2022-11-15T11:46:59.621Z,8.10
2022-11-15T11:49:37.634Z,8.20
2022-11-15T11:52:28.175Z,8.20
2022-11-15T11:55:26.402Z,8.20
2022-11-15T11:58:11.167Z,8.20
2022-11-15T12:00:56.142Z,8.20
2022-11-15T12:03:23.509Z,8.20
2022-11-15T12:05:59.816Z,8.20
2022-11-15T12:08:42.138Z,8.10
2022-11-15T12:11:33.784Z,8.10
2022-11-15T12:14:09.904Z,8.10
2022-11-15T12:16:44.109Z,8.10
2022-11-15T12:19:11.785Z,8.10
2022-11-15T12:22:03.365Z,8.10
2022-11-15T12:24:40.675Z,8.10
2022-11-15T12:27:15.273Z,8.10
2022-11-15T12:29:49.658Z,8.00
2022-11-15T12:32:27.842Z,8.00
2022-11-15T12:34:56.586Z,8.00
2022-11-15T12:37:41.592Z,8.00
2022-11-15T12:40:22.217Z,8.00
2022-11-15T12:43:00.961Z,7.90
2022-11-15T12:45:41.333Z,7.90
2022-11-15T12:48:17.092Z,7.90
2022-11-15T12:50:55.937Z,7.90
2022-11-15T12:53:25.980Z,7.90
2022-11-15T12:56:05.189Z,7.90
2022-11-15T12:58:50.766Z,7.90
2022-11-15T13:01:33.650Z,7.80
2022-11-15T13:04:19.586Z,7.80
2022-11-15T13:06:51.565Z,7.80
2022-11-15T13:09:36.588Z,7.80
2022-11-15T13:12:35.342Z,7.70
2022-11-15T13:15:22.920Z,7.70
2022-11-15T13:17:56.092Z,7.70
2022-11-15T13:20:30.285Z,7.70
2022-11-15T13:23:10.713Z,7.70
2022-11-15T13:25:40.907Z,7.70
2022-11-15T13:28:17.152Z,7.70
2022-11-15T13:30:55.868Z,7.60
2022-11-15T13:33:35.914Z,7.60
2022-11-15T13:36:22.522Z,7.50
2022-11-15T13:39:04.055Z,7.60
2022-11-15T13:41:34.031Z,7.50
2022-11-15T13:44:02.927Z,7.50
2022-11-15T13:46:34.496Z,7.50
2022-11-15T13:49:12.427Z,7.40
2022-11-15T13:51:52.219Z,7.30
2022-11-15T13:54:19.581Z,7.20
2022-11-15T13:57:06.470Z,7.10
2022-11-15T13:59:49.572Z,7.20
2022-11-15T14:02:26.803Z,7.20
2022-11-15T14:05:17.702Z,7.20
2022-11-15T14:07:59.743Z,7.20
2022-11-15T14:10:29.846Z,7.20
2022-11-15T14:12:57.088Z,7.20
2022-11-15T14:15:33.213Z,7.20
2022-11-15T14:18:00.588Z,7.20
2022-11-15T14:20:35.100Z,7.20
2022-11-15T14:23:05.727Z,7.20
2022-11-15T14:25:36.856Z,7.20
2022-11-15T14:28:24.305Z,7.20
2022-11-15T14:30:53.811Z,7.10
2022-11-15T14:33:31.815Z,7.10
2022-11-15T14:36:07.726Z,7.10
2022-11-15T14:38:35.916Z,7.10
2022-11-15T14:41:03.936Z,7.10
2022-11-15T14:43:30.921Z,7.00
2022-11-15T14:46:02.206Z,7.00
2022-11-15T14:48:29.950Z,7.00
2022-11-15T14:50:57.934Z,7.00
2022-11-15T14:53:26.054Z,6.90
2022-11-15T14:55:53.334Z,6.90
2022-11-15T14:58:20.416Z,6.90
2022-11-15T15:00:47.770Z,6.90
2022-11-15T15:03:15.011Z,6.90
2022-11-15T15:05:44.222Z,6.90
2022-11-15T15:08:13.989Z,6.90
2022-11-15T15:10:46.284Z,6.90
2022-11-15T15:13:24.652Z,6.80
2022-11-15T15:15:53.129Z,6.80
2022-11-15T15:18:21.316Z,6.80
2022-11-15T15:21:07.945Z,6.70
2022-11-15T15:23:36.600Z,6.60
2022-11-15T15:26:05.519Z,6.60
2022-11-15T15:28:34.799Z,6.60
2022-11-15T15:31:03.121Z,6.60
2022-11-15T15:33:30.164Z,6.60
2022-11-15T15:35:57.481Z,6.60
2022-11-15T15:38:26.809Z,6.60
2022-11-15T15:40:54.448Z,6.70
2022-11-15T15:43:21.499Z,6.70
2022-11-15T15:45:48.800Z,6.70
2022-11-15T15:48:17.938Z,6.70
2022-11-15T15:50:45.334Z,6.60
2022-11-15T15:53:13.826Z,6.60
2022-11-15T15:55:41.551Z,6.70
2022-11-15T15:58:09.284Z,6.60
2022-11-15T16:00:37.796Z,6.60
2022-11-15T16:03:07.678Z,6.60
2022-11-15T16:05:35.192Z,6.70
2022-11-15T16:08:02.247Z,6.70
2022-11-15T16:10:32.334Z,6.70
2022-11-15T16:12:59.557Z,6.60
2022-11-15T16:15:29.927Z,6.60
2022-11-15T16:17:59.388Z,6.60
2022-11-15T16:20:37.521Z,6.60
2022-11-15T16:23:10.173Z,6.60
2022-11-15T16:25:56.656Z,6.60
2022-11-15T16:28:29.074Z,6.60
2022-11-15T16:31:12.241Z,6.60
2022-11-15T16:33:40.368Z,6.50
2022-11-15T16:36:28.669Z,6.60
2022-11-15T16:38:58.377Z,6.60
2022-11-15T16:41:26.035Z,6.60
2022-11-15T16:43:53.160Z,6.50
2022-11-15T16:46:25.825Z,6.50
2022-11-15T16:48:54.262Z,6.50
2022-11-15T16:51:22.244Z,6.50
2022-11-15T16:53:50.145Z,6.50
2022-11-15T16:56:29.081Z,6.50
2022-11-15T16:59:00.340Z,6.40
2022-11-15T17:01:30.530Z,6.20
2022-11-15T17:03:58.987Z,6.20
2022-11-15T17:06:29.314Z,6.30
2022-11-15T17:08:56.767Z,6.30
2022-11-15T17:11:24.392Z,6.20
2022-11-15T17:13:51.462Z,6.10
2022-11-15T17:16:19.058Z,6.20
2022-11-15T17:18:50.709Z,6.10
2022-11-15T17:21:20.787Z,6.20
2022-11-15T17:23:48.210Z,6.20
2022-11-15T17:26:34.988Z,6.10
2022-11-15T17:29:07.710Z,6.10
2022-11-15T17:31:36.298Z,6.00
2022-11-15T17:34:07.145Z,6.10
2022-11-15T17:36:35.627Z,6.00
2022-11-15T17:39:04.115Z,6.10
2022-11-15T17:41:32.234Z,6.10
2022-11-15T17:44:03.545Z,6.20
2022-11-15T17:46:31.542Z,6.20
2022-11-15T17:48:59.030Z,6.10
2022-11-15T17:51:26.538Z,6.20
2022-11-15T17:53:55.178Z,6.20
2022-11-15T17:56:26.826Z,6.30
2022-11-15T17:58:55.058Z,6.20
2022-11-15T18:01:30.586Z,6.20
2022-11-15T18:04:00.590Z,6.20
2022-11-15T18:06:32.710Z,6.30
2022-11-15T18:09:00.212Z,6.30
2022-11-15T18:11:30.279Z,6.30
2022-11-15T18:14:00.069Z,6.30
2022-11-15T18:16:30.913Z,6.40
2022-11-15T18:18:58.845Z,6.40
2022-11-15T18:21:28.900Z,6.40
2022-11-15T18:23:58.611Z,6.40
2022-11-15T18:26:28.039Z,6.40
2022-11-15T18:28:58.433Z,6.40
2022-11-15T18:31:28.454Z,6.40
2022-11-15T18:33:59.445Z,6.40
2022-11-15T18:36:30.225Z,6.50
2022-11-15T18:38:59.625Z,6.30
2022-11-15T18:41:30.839Z,6.30
2022-11-15T18:44:00.545Z,6.30
2022-11-15T18:46:30.740Z,6.30
2022-11-15T18:49:00.356Z,6.30
2022-11-15T18:51:31.358Z,6.30
2022-11-15T18:54:01.887Z,6.30
2022-11-15T18:56:31.170Z,6.40
2022-11-15T18:59:00.002Z,6.40
2022-11-15T19:01:34.156Z,6.30
2022-11-15T19:04:06.261Z,6.30
2022-11-15T19:06:41.277Z,6.30
2022-11-15T19:09:09.841Z,6.30
2022-11-15T19:11:39.599Z,6.20
2022-11-15T19:14:13.655Z,6.20
2022-11-15T19:16:50.040Z,6.10
2022-11-15T19:19:19.530Z,6.00
2022-11-15T19:21:47.508Z,5.90
2022-11-15T19:24:14.684Z,5.90
2022-11-15T19:26:42.660Z,6.00
2022-11-15T19:29:16.007Z,6.00
2022-11-15T19:31:43.480Z,6.00
2022-11-15T19:34:11.033Z,6.00
2022-11-15T19:36:42.283Z,5.90
2022-11-15T19:39:14.468Z,5.90
2022-11-15T19:41:47.869Z,5.80
2022-11-15T19:44:15.088Z,5.80
2022-11-15T19:46:42.879Z,5.90
2022-11-15T19:49:11.207Z,6.00
2022-11-15T19:51:39.630Z,6.10
2022-11-15T19:54:08.898Z,6.10
2022-11-15T19:56:37.463Z,6.10
2022-11-15T19:59:05.275Z,6.10
2022-11-15T20:01:39.269Z,6.00
2022-11-15T20:04:08.091Z,6.00
2022-11-15T20:06:39.268Z,6.00
2022-11-15T20:09:08.475Z,5.90
2022-11-15T20:11:38.105Z,5.90
2022-11-15T20:14:08.077Z,6.00
2022-11-15T20:16:35.759Z,6.20
2022-11-15T20:19:02.791Z,5.90
2022-11-15T20:21:30.133Z,5.90
2022-11-15T20:23:57.242Z,5.90
2022-11-15T20:26:24.551Z,5.80
2022-11-15T20:28:51.676Z,5.80
2022-11-15T20:31:19.101Z,5.90
2022-11-15T20:33:46.109Z,5.90
2022-11-15T20:36:15.637Z,5.80
2022-11-15T20:38:43.962Z,5.80
2022-11-15T20:41:12.512Z,5.80
2022-11-15T20:43:41.736Z,5.80
2022-11-15T20:46:10.521Z,5.80
2022-11-15T20:48:37.578Z,5.90
2022-11-15T20:51:11.539Z,5.90
2022-11-15T20:53:38.586Z,5.90
2022-11-15T20:56:09.816Z,5.90
2022-11-15T20:58:37.712Z,6.00
2022-11-15T21:01:06.904Z,5.90
2022-11-15T21:03:35.235Z,5.90
2022-11-15T21:06:03.647Z,6.00
2022-11-15T21:08:53.446Z,6.00
2022-11-15T21:11:39.658Z,6.00
2022-11-15T21:14:09.611Z,6.00
2022-11-15T21:16:38.915Z,5.80
2022-11-15T21:19:09.370Z,5.80
2022-11-15T21:21:37.192Z,5.80
2022-11-15T21:24:09.725Z,5.90
2022-11-15T21:26:37.509Z,6.00
2022-11-15T21:29:04.979Z,6.00
2022-11-15T21:31:32.408Z,6.00
2022-11-15T21:34:02.872Z,6.10
2022-11-15T21:36:30.643Z,6.10
2022-11-15T21:38:57.686Z,6.20
2022-11-15T21:41:25.090Z,6.20
2022-11-15T21:43:52.246Z,6.10
2022-11-15T21:46:22.517Z,6.10
2022-11-15T21:48:49.583Z,6.10
2022-11-15T21:51:16.918Z,6.00
2022-11-15T21:53:44.167Z,6.00
2022-11-15T21:56:14.186Z,6.00
2022-11-15T21:58:41.227Z,6.00
2022-11-15T22:01:28.969Z,5.90
2022-11-15T22:03:56.224Z,6.00
2022-11-15T22:06:24.645Z,5.90
2022-11-15T22:08:51.884Z,5.90
2022-11-15T22:11:19.542Z,6.00
2022-11-15T22:13:46.920Z,6.10
2022-11-15T22:16:14.402Z,6.10
2022-11-15T22:18:42.825Z,6.20
2022-11-15T22:21:13.509Z,6.20
2022-11-15T22:23:41.379Z,6.20
2022-11-15T22:26:12.263Z,6.20
2022-11-15T22:28:39.585Z,6.20
2022-11-15T22:31:07.174Z,6.20
2022-11-15T22:33:35.002Z,6.20
2022-11-15T22:36:04.352Z,6.30
2022-11-15T22:38:32.208Z,6.30
2022-11-15T22:41:00.443Z,6.40
2022-11-15T22:43:28.129Z,6.40
2022-11-15T22:45:58.106Z,6.40
2022-11-15T22:48:34.577Z,6.40
2022-11-15T22:51:03.323Z,6.50
2022-11-15T22:53:30.941Z,6.40
2022-11-15T22:56:00.970Z,6.50
2022-11-15T22:58:31.662Z,6.40
2022-11-15T23:01:01.607Z,6.40
2022-11-15T23:03:30.595Z,6.40
2022-11-15T23:06:03.874Z,6.30
2022-11-15T23:08:31.676Z,6.30
2022-11-15T23:11:22.477Z,6.30
2022-11-15T23:13:52.921Z,6.40
2022-11-15T23:16:26.089Z,6.40
2022-11-15T23:18:56.453Z,6.40
2022-11-15T23:21:46.735Z,6.40
2022-11-15T23:24:14.638Z,6.40
2022-11-15T23:26:43.421Z,6.40
2022-11-15T23:29:14.928Z,6.40
2022-11-15T23:32:02.671Z,6.40
2022-11-15T23:34:36.756Z,6.40
2022-11-15T23:37:05.277Z,6.40
2022-11-15T23:39:32.859Z,6.50
2022-11-15T23:42:05.919Z,6.50
2022-11-15T23:44:36.057Z,6.50
2022-11-15T23:47:03.852Z,6.50
2022-11-15T23:49:31.094Z,6.40
2022-11-15T23:51:58.724Z,6.50
2022-11-15T23:54:25.934Z,6.50
2022-11-15T23:56:53.410Z,6.50
2022-11-15T23:59:20.656Z,6.40
